Time;durP1;ratioP1;P1;durP2;ratioP2;P2;SDS_P1;SDS_P2;PMS_P1;PMS_P2;Temp;Humidity;BMP_temperature;BMP_pressure;BME280_temperature;BME280_humidity;BME280_pressure;Samples;Min_cycle;Max_cycle;Signal;HPM_P1;HPM_P2
2022/08/06 00:00:04;;;;;;;8.73;5.22;;;;;;;23.66;60.74;100364.59;2100559;28;20311;-75
2022/08/06 00:01:32;;;;;;;6.45;5.00;;;;;;;23.56;61.06;100357.88;2097795;28;20064;-75
2022/08/06 00:02:55;;;;;;;8.60;4.80;;;;;;;23.31;61.50;100360.72;2107252;28;20044;-76
2022/08/06 00:04:17;;;;;;;7.68;5.00;;;;;;;23.19;62.07;100355.84;2104299;28;20052;-75
2022/08/06 00:05:39;;;;;;;;;;;;;;;23.07;62.46;100361.75;2102281;28;20048;-75
2022/08/06 00:07:00;;;;;;;7.32;4.85;;;;;;;23.00;62.73;100353.94;2103998;28;20018;-76
2022/08/06 00:08:23;;;;;;;7.90;5.00;;;;;;;23.08;62.52;100358.13;2103144;28;20086;-76
2022/08/06 00:09:44;;;;;;;7.53;5.18;;;;;;;23.10;62.44;100353.56;2106675;28;20138;-75
2022/08/06 00:11:07;;;;;;;7.85;4.60;;;;;;;23.11;62.30;100353.47;2094077;28;20049;-76
2022/08/06 00:12:31;;;;;;;7.35;4.53;;;;;;;23.18;62.31;100359.47;2098196;28;20515;-75
2022/08/06 00:13:54;;;;;;;8.63;4.95;;;;;;;23.29;62.03;100357.22;2105110;28;20052;-76
2022/08/06 00:15:18;;;;;;;10.10;5.30;;;;;;;23.31;61.83;100355.31;2094787;28;20048;-76
2022/08/06 00:16:40;;;;;;;9.98;5.60;;;;;;;23.28;61.99;100353.66;2103188;28;20056;-75
2022/08/06 00:18:03;;;;;;;10.20;5.38;;;;;;;23.34;61.74;100352.50;2102960;28;20067;-75
2022/08/06 00:19:26;;;;;;;7.85;4.95;;;;;;;23.40;61.66;100349.53;2094752;28;20099;-75
2022/08/06 00:20:48;;;;;;;8.48;4.80;;;;;;;23.44;61.25;100340.38;2099323;28;20103;-76
2022/08/06 00:22:10;;;;;;;8.77;4.78;;;;;;;23.48;60.81;100347.44;2098815;28;20162;-76
2022/08/06 00:23:32;;;;;;;7.32;4.15;;;;;;;23.49;60.87;100356.41;2103992;28;20077;-75
2022/08/06 00:24:55;;;;;;;7.07;5.10;;;;;;;23.42;60.95;100353.06;2105121;28;20055;-75
2022/08/06 00:26:17;;;;;;;8.73;5.43;;;;;;;23.42;60.95;100345.84;2103039;28;20508;-75
2022/08/06 00:27:41;;;;;;;8.18;4.65;;;;;;;23.45;60.97;100358.28;2102564;28;20051;-75
2022/08/06 00:29:03;;;;;;;7.50;4.57;;;;;;;23.45;60.86;100359.16;2102480;28;20131;-75
2022/08/06 00:30:25;;;;;;;10.93;5.57;;;;;;;23.48;60.76;100358.22;2108379;28;20036;-75
2022/08/06 00:31:48;;;;;;;8.60;4.93;;;;;;;23.47;60.78;100345.69;2104289;28;20055;-75
2022/08/06 00:33:09;;;;;;;8.38;4.50;;;;;;;23.47;60.97;100345.69;2101065;28;20042;-76
2022/08/06 00:34:31;;;;;;;8.25;5.35;;;;;;;23.47;60.69;100345.69;2103564;28;20280;-76
2022/08/06 00:35:53;;;;;;;11.43;5.38;;;;;;;23.48;60.74;100354.63;2100738;28;20059;-76
2022/08/06 00:37:15;;;;;;;7.10;4.53;;;;;;;23.43;60.79;100349.41;2102262;28;20032;-75
2022/08/06 00:38:37;;;;;;;8.93;5.05;;;;;;;23.29;61.25;100349.16;2105605;28;20044;-75
2022/08/06 00:39:59;;;;;;;8.68;4.75;;;;;;;23.19;61.57;100342.38;2102506;28;20040;-75
2022/08/06 00:41:23;;;;;;;9.00;4.57;;;;;;;23.23;61.68;100346.72;2102282;28;20051;-76
2022/08/06 00:42:46;;;;;;;7.30;4.90;;;;;;;23.24;61.69;100343.06;2094594;28;20114;-76
2022/08/06 00:44:09;;;;;;;9.68;4.90;;;;;;;23.24;61.64;100346.63;2108586;28;20526;-76
2022/08/06 00:45:32;;;;;;;9.20;4.85;;;;;;;23.22;61.56;100348.53;2104479;28;20040;-76
2022/08/06 00:46:54;;;;;;;8.90;4.65;;;;;;;23.17;61.77;100350.53;2103041;28;20079;-76
2022/08/06 00:48:16;;;;;;;8.50;4.90;;;;;;;23.12;61.87;100344.47;2094203;28;20575;-76
2022/08/06 00:49:37;;;;;;;8.85;5.13;;;;;;;23.13;62.06;100345.34;2096101;28;20040;-76
2022/08/06 00:51:00;;;;;;;6.68;4.57;;;;;;;23.19;62.07;100342.38;2103016;28;20048;-75
2022/08/06 00:52:22;;;;;;;6.80;4.75;;;;;;;23.25;61.85;100342.13;2097077;28;20500;-76
2022/08/06 00:53:44;;;;;;;9.13;4.32;;;;;;;23.29;61.62;100343.75;2104548;28;20036;-75
2022/08/06 00:55:07;;;;;;;16.50;5.65;;;;;;;23.28;61.70;100344.69;2093941;28;20040;-76
2022/08/06 00:56:29;;;;;;;9.60;4.95;;;;;;;23.30;61.76;100345.50;2098173;28;20093;-76
2022/08/06 00:57:52;;;;;;;7.72;4.40;;;;;;;23.33;61.76;100342.66;2101973;28;20094;-76
2022/08/06 00:59:15;;;;;;;10.68;5.00;;;;;;;23.35;61.80;100338.09;2102869;28;20044;-76
2022/08/06 01:00:37;;;;;;;8.88;5.18;;;;;;;23.39;61.88;100342.41;2096710;28;20076;-75
2022/08/06 01:01:59;;;;;;;6.82;4.20;;;;;;;23.41;61.58;100337.81;2099972;28;20036;-75
2022/08/06 01:03:21;;;;;;;7.28;4.80;;;;;;;23.43;61.54;100346.72;2104317;28;20074;-74
2022/08/06 01:04:43;;;;;;;8.30;4.78;;;;;;;23.35;61.81;100338.09;2109165;28;20047;-76
2022/08/06 01:06:05;;;;;;;7.45;4.63;;;;;;;23.33;61.80;100342.66;2103157;28;20101;-75
2022/08/06 01:07:27;;;;;;;6.78;4.50;;;;;;;23.35;61.85;100338.97;2100736;28;20048;-75
2022/08/06 01:08:48;;;;;;;11.10;4.93;;;;;;;23.39;61.60;100335.19;2100760;28;20051;-75
2022/08/06 01:10:11;;;;;;;7.68;3.90;;;;;;;23.43;61.45;100334.09;2093962;28;20107;-76
2022/08/06 01:11:33;;;;;;;7.75;4.47;;;;;;;23.49;61.52;100332.13;2097115;28;20051;-76
2022/08/06 01:12:56;;;;;;;7.43;4.75;;;;;;;23.52;61.09;100335.56;2099725;28;20131;-75
2022/08/06 01:14:19;;;;;;;10.15;5.03;;;;;;;23.48;61.03;100330.38;2104633;28;20407;-75
2022/08/06 01:15:47;;;;;;;10.07;4.90;;;;;;;23.41;60.94;100332.44;2104544;28;20053;-76
2022/08/06 01:17:18;;;;;;;7.72;4.60;;;;;;;23.33;61.46;100334.59;2111215;28;20048;-75
2022/08/06 01:18:46;;;;;;;10.45;6.70;;;;;;;23.32;61.69;100332.81;2105503;28;20043;-75
2022/08/06 01:20:21;;;;;;;9.38;4.90;;;;;;;23.35;61.57;100328.19;2093382;28;20048;-75
2022/08/06 01:21:55;;;;;;;7.07;4.60;;;;;;;23.40;61.42;100326.19;2101593;28;20131;-76
2022/08/06 01:23:40;;;;;;;7.85;4.35;;;;;;;23.44;61.36;100327.78;2101868;28;20574;-76
2022/08/06 01:25:32;;;;;;;7.90;4.32;;;;;;;23.49;61.40;100326.75;2113345;28;20079;-76
2022/08/06 01:27:03;;;;;;;6.43;4.22;;;;;;;23.53;61.13;100328.34;2101348;28;20097;-75
2022/08/06 01:28:31;;;;;;;6.47;4.40;;;;;;;23.56;61.08;100330.94;2099542;28;20081;-76
2022/08/06 01:29:58;;;;;;;6.97;4.47;;;;;;;23.52;60.88;100326.59;2108109;28;20157;-76
2022/08/06 01:31:28;;;;;;;7.57;4.43;;;;;;;23.41;61.03;100327.94;2103598;28;20055;-76
2022/08/06 01:32:57;;;;;;;9.88;4.80;;;;;;;23.41;61.11;100327.06;2112714;28;20475;-76
2022/08/06 01:34:25;;;;;;;7.97;4.00;;;;;;;23.42;61.13;100328.81;2102488;28;20510;-76
2022/08/06 01:35:52;;;;;;;6.93;3.88;;;;;;;23.44;61.11;100317.00;2100996;28;20054;-76
2022/08/06 01:37:21;;;;;;;8.85;4.85;;;;;;;23.42;60.94;100320.72;2103820;28;20636;-76
2022/08/06 01:38:47;;;;;;;7.45;4.38;;;;;;;23.38;61.20;100324.47;2096719;28;20165;-76
2022/08/06 01:40:16;;;;;;;6.07;4.28;;;;;;;23.38;61.23;100322.66;2108638;28;20067;-76
2022/08/06 01:41:44;;;;;;;7.03;4.30;;;;;;;23.44;61.18;100321.50;2097051;28;20618;-77
2022/08/06 01:43:09;;;;;;;7.45;3.97;;;;;;;23.44;61.09;100321.50;2118199;27;20054;-78
2022/08/06 01:44:37;;;;;;;8.15;4.25;;;;;;;23.42;61.12;100318.91;2101936;28;20539;-77
2022/08/06 01:46:01;;;;;;;7.80;4.15;;;;;;;23.48;60.85;100325.00;2099548;28;20062;-77
2022/08/06 01:47:27;;;;;;;9.48;5.00;;;;;;;23.52;60.84;100322.09;2098631;28;20109;-78
2022/08/06 01:48:49;;;;;;;7.57;4.72;;;;;;;23.51;60.70;100325.72;2102325;28;20054;-77
2022/08/06 01:50:12;;;;;;;7.90;3.92;;;;;;;23.47;60.72;100323.19;2102527;28;20548;-77
2022/08/06 01:51:36;;;;;;;9.25;4.35;;;;;;;23.45;60.74;100321.44;2102119;28;20041;-77
2022/08/06 01:53:01;;;;;;;7.40;4.90;;;;;;;23.39;60.75;100324.41;2093790;28;20552;-77
2022/08/06 01:54:23;;;;;;;7.10;4.20;;;;;;;23.32;60.92;100316.66;2095830;28;20474;-77
2022/08/06 01:55:50;;;;;;;9.77;4.05;;;;;;;23.30;61.01;100316.72;2098344;28;20059;-77
2022/08/06 01:57:16;;;;;;;6.63;4.07;;;;;;;23.34;61.14;100317.47;2104937;28;20075;-77
2022/08/06 01:58:43;;;;;;;7.45;3.88;;;;;;;23.39;61.00;100319.03;2100709;28;20545;-77
2022/08/06 02:00:08;;;;;;;6.00;4.22;;;;;;;23.44;60.99;100318.81;2100617;28;20553;-77
2022/08/06 02:01:37;;;;;;;9.48;4.68;;;;;;;23.46;60.73;100322.31;2102833;28;20051;-77
2022/08/06 02:03:01;;;;;;;7.47;4.25;;;;;;;23.41;60.82;100318.97;2102266;28;20071;-78
2022/08/06 02:04:26;;;;;;;8.45;4.22;;;;;;;23.33;60.91;100322.00;2094062;28;20057;-77
2022/08/06 02:05:51;;;;;;;7.20;3.60;;;;;;;23.27;61.26;100321.38;2092111;28;20105;-77
2022/08/06 02:07:17;;;;;;;8.50;3.75;;;;;;;23.33;61.09;100313.03;2100372;28;20044;-77
2022/08/06 02:08:40;;;;;;;8.65;4.13;;;;;;;23.42;60.80;100315.34;2103430;28;20050;-77
2022/08/06 02:10:05;;;;;;;7.05;3.90;;;;;;;23.50;60.78;100313.19;2102326;28;20048;-77
2022/08/06 02:11:27;;;;;;;6.30;3.97;;;;;;;23.52;60.36;100314.00;2098702;28;20070;-77
2022/08/06 02:12:51;;;;;;;7.03;4.15;;;;;;;23.52;60.25;100314.00;2102139;28;20052;-77
2022/08/06 02:14:15;;;;;;;5.93;3.67;;;;;;;23.54;60.12;100314.81;2093919;28;20358;-77
2022/08/06 02:15:39;;;;;;;7.65;3.78;;;;;;;23.49;60.38;100310.59;2091339;28;20040;-77
2022/08/06 02:17:04;;;;;;;6.60;4.03;;;;;;;23.49;60.30;100310.59;2099838;28;20047;-77
2022/08/06 02:18:29;;;;;;;7.47;4.18;;;;;;;23.52;60.40;100307.72;2101943;28;20064;-77
2022/08/06 02:19:54;;;;;;;5.82;4.28;;;;;;;23.52;60.43;100313.13;2101836;28;20507;-77
2022/08/06 02:21:21;;;;;;;6.05;3.92;;;;;;;23.54;60.16;100305.84;2103869;28;20485;-77
2022/08/06 02:22:47;;;;;;;6.40;4.72;;;;;;;23.56;60.30;100310.25;2099796;28;20044;-77
2022/08/06 02:24:11;;;;;;;10.27;4.15;;;;;;;23.55;60.19;100304.91;2100361;28;20048;-77
2022/08/06 02:25:35;;;;;;;8.55;3.90;;;;;;;23.59;59.94;100302.00;2102126;28;20044;-77
2022/08/06 02:27:01;;;;;;;7.28;4.10;;;;;;;23.67;59.61;100302.53;2102396;28;20060;-77
2022/08/06 02:28:26;;;;;;;6.68;4.22;;;;;;;23.69;59.84;100306.03;2102314;28;20067;-77
2022/08/06 02:29:50;;;;;;;7.28;3.80;;;;;;;23.69;59.65;100303.34;2094361;28;20143;-77
2022/08/06 02:31:14;;;;;;;6.80;4.07;;;;;;;23.68;59.39;100307.00;2100933;28;20146;-76
2022/08/06 02:32:35;;;;;;;8.43;4.10;;;;;;;23.58;59.74;100311.03;2102529;28;20051;-77
2022/08/06 02:33:58;;;;;;;7.40;4.60;;;;;;;23.42;59.95;100312.63;2110143;28;20071;-76
2022/08/06 02:35:21;;;;;;;8.65;4.13;;;;;;;23.31;60.40;100306.81;2100958;28;20056;-76
2022/08/06 02:36:46;;;;;;;5.95;4.00;;;;;;;23.35;60.48;100306.66;2104258;28;20051;-77
2022/08/06 02:38:14;;;;;;;5.60;3.55;;;;;;;23.43;60.26;100301.78;2102458;28;20046;-77
2022/08/06 02:39:41;;;;;;;6.93;3.72;;;;;;;23.49;60.14;100303.38;2108177;28;20139;-76
2022/08/06 02:41:12;;;;;;;7.70;3.92;;;;;;;23.52;60.13;100305.03;2104537;28;20273;-77
2022/08/06 02:42:38;;;;;;;7.13;3.80;;;;;;;23.53;59.98;100310.38;2093077;28;20052;-77
2022/08/06 02:44:07;;;;;;;6.22;4.05;;;;;;;23.55;59.76;100305.78;2090826;28;20048;-77
2022/08/06 02:45:37;;;;;;;9.30;3.80;;;;;;;23.57;59.78;100308.38;2101142;28;20086;-77
2022/08/06 02:47:06;;;;;;;7.18;4.03;;;;;;;23.58;59.70;100300.25;2102851;28;20048;-77
2022/08/06 02:48:34;;;;;;;6.47;3.85;;;;;;;23.61;59.56;100297.44;2102695;28;20075;-77
2022/08/06 02:49:59;;;;;;;7.63;3.75;;;;;;;23.53;59.60;100304.09;2103944;28;20040;-77
2022/08/06 02:51:26;;;;;;;9.27;4.70;;;;;;;23.42;59.95;100294.66;2102263;28;20707;-77
2022/08/06 02:52:53;;;;;;;7.65;3.72;;;;;;;23.38;60.19;100297.53;2094642;28;20497;-77
2022/08/06 02:54:20;;;;;;;6.43;3.95;;;;;;;23.39;60.29;100300.16;2107582;28;20044;-77
2022/08/06 02:55:46;;;;;;;5.97;3.80;;;;;;;23.41;60.10;100300.09;2102297;28;20063;-77
2022/08/06 02:57:15;;;;;;;8.05;3.80;;;;;;;23.44;60.23;100299.94;2097487;28;20052;-77
2022/08/06 02:58:42;;;;;;;5.53;3.50;;;;;;;23.48;60.16;100300.75;2107918;28;20130;-77
2022/08/06 03:00:07;;;;;;;8.20;3.80;;;;;;;23.51;60.14;100301.47;2095573;28;20076;-78
2022/08/06 03:01:32;;;;;;;7.22;3.60;;;;;;;23.54;59.91;100300.47;2093631;28;20068;-77
2022/08/06 03:03:02;;;;;;;8.57;3.70;;;;;;;23.55;59.87;100305.78;2102061;28;20059;-77
2022/08/06 03:04:26;;;;;;;7.68;3.92;;;;;;;23.56;59.70;100307.53;2104601;28;20451;-77
2022/08/06 03:05:52;;;;;;;5.30;4.07;;;;;;;23.56;59.88;100306.66;2101845;28;20060;-77
2022/08/06 03:07:16;;;;;;;6.15;4.10;;;;;;;23.55;59.78;100299.53;2103546;28;20112;-77
2022/08/06 03:08:37;;;;;;;9.25;4.75;;;;;;;23.51;60.00;100311.38;2104350;28;20063;-77
2022/08/06 03:10:02;;;;;;;6.85;3.40;;;;;;;23.51;60.09;100297.88;2097843;28;20056;-77
2022/08/06 03:11:24;;;;;;;7.95;4.13;;;;;;;23.53;59.95;100299.59;2098874;28;20044;-77
2022/08/06 03:12:48;;;;;;;5.70;3.50;;;;;;;23.51;59.91;100303.28;2105032;28;20519;-77
2022/08/06 03:14:13;;;;;;;8.50;3.90;;;;;;;23.41;60.22;100300.09;2102670;28;20147;-77
2022/08/06 03:15:38;;;;;;;6.68;3.83;;;;;;;23.33;60.56;100302.25;2103394;28;20044;-77
2022/08/06 03:17:00;;;;;;;7.03;3.60;;;;;;;23.34;60.44;100304.88;2105239;28;20143;-77
2022/08/06 03:18:24;;;;;;;8.95;3.88;;;;;;;23.40;60.24;100301.03;2094947;28;20459;-77
2022/08/06 03:19:47;;;;;;;9.32;4.03;;;;;;;23.46;60.11;100300.78;2100932;28;20044;-78
2022/08/06 03:21:12;;;;;;;6.53;4.00;;;;;;;23.51;59.94;100297.88;2102832;28;20062;-77
2022/08/06 03:22:34;;;;;;;7.75;3.88;;;;;;;23.53;59.83;100302.28;2101740;28;20048;-77
2022/08/06 03:23:59;;;;;;;7.65;3.65;;;;;;;23.52;59.54;100296.94;2100636;28;20036;-78
2022/08/06 03:25:21;;;;;;;7.97;4.30;;;;;;;23.49;59.71;100294.41;2100613;28;20054;-77
2022/08/06 03:26:46;;;;;;;8.15;4.45;;;;;;;23.45;59.65;100296.31;2095183;28;20417;-77
2022/08/06 03:28:10;;;;;;;6.82;3.97;;;;;;;23.38;59.87;100298.41;2105126;28;20036;-78
2022/08/06 03:29:36;;;;;;;6.85;3.83;;;;;;;23.36;60.21;100304.84;2103842;28;20523;-77
2022/08/06 03:30:59;;;;;;;9.90;3.60;;;;;;;23.36;60.23;100296.75;2103255;28;20048;-77
2022/08/06 03:32:21;;;;;;;6.38;3.53;;;;;;;23.35;60.25;100298.56;2108014;28;20047;-78
2022/08/06 03:33:45;;;;;;;6.80;4.15;;;;;;;23.41;60.18;100306.38;2104591;28;20130;-77
2022/08/06 03:35:09;;;;;;;8.20;3.90;;;;;;;23.47;59.96;100302.56;2095210;28;20110;-77
2022/08/06 03:36:32;;;;;;;6.20;3.45;;;;;;;23.54;59.96;100308.53;2099888;28;20051;-77
2022/08/06 03:37:56;;;;;;;8.18;3.58;;;;;;;23.59;59.60;100299.31;2105843;28;20499;-78
2022/08/06 03:39:19;;;;;;;6.95;3.95;;;;;;;23.61;59.77;100304.63;2112752;27;20105;-77
2022/08/06 03:40:43;;;;;;;6.28;4.10;;;;;;;23.62;59.86;100296.50;2106201;28;20673;-77
2022/08/06 03:42:07;;;;;;;6.43;4.07;;;;;;;23.69;59.80;100297.09;2102007;28;20040;-78
2022/08/06 03:43:29;;;;;;;7.07;3.63;;;;;;;23.73;59.67;100288.78;2089696;28;20040;-77
2022/08/06 03:44:52;;;;;;;5.07;3.95;;;;;;;23.72;59.70;100299.63;2101261;28;20423;-77
2022/08/06 03:46:19;;;;;;;6.75;3.72;;;;;;;23.78;59.72;100297.50;2094936;28;20143;-77
2022/08/06 03:47:44;;;;;;;7.22;3.97;;;;;;;23.86;59.55;100301.69;2110406;28;20035;-77
2022/08/06 03:49:13;;;;;;;8.40;3.15;;;;;;;23.93;59.64;100301.31;2105761;28;20075;-77
2022/08/06 03:50:43;;;;;;;7.68;3.78;;;;;;;24.04;59.46;100301.69;2104303;28;20047;-77
2022/08/06 03:52:08;;;;;;;13.05;4.00;;;;;;;24.17;59.07;100299.28;2101857;28;20048;-77
2022/08/06 03:53:34;;;;;;;7.05;3.78;;;;;;;24.26;59.05;100298.00;2104043;28;20073;-77
2022/08/06 03:55:02;;;;;;;9.35;4.28;;;;;;;24.36;58.83;100291.22;2105871;28;20052;-76
2022/08/06 03:56:27;;;;;;;8.25;3.67;;;;;;;24.44;58.51;100299.81;2108191;28;20043;-77
2022/08/06 03:57:53;;;;;;;5.85;3.47;;;;;;;24.49;58.42;100301.31;2111793;28;20488;-77
2022/08/06 03:59:17;;;;;;;8.68;3.55;;;;;;;24.57;58.52;100307.22;2095895;28;20079;-77
2022/08/06 04:00:45;;;;;;;6.30;3.55;;;;;;;24.59;58.53;100299.94;2099223;28;20032;-77
2022/08/06 04:02:08;;;;;;;7.47;3.83;;;;;;;24.70;58.43;100296.69;2094236;28;20060;-77
2022/08/06 04:03:32;;;;;;;8.95;3.30;;;;;;;24.82;57.96;100292.50;2098719;28;20081;-77
2022/08/06 04:04:55;;;;;;;8.25;3.78;;;;;;;24.94;57.87;100298.19;2104685;28;20079;-77
2022/08/06 04:06:20;;;;;;;8.90;3.45;;;;;;;25.07;57.75;100300.28;2103035;28;20148;-77
2022/08/06 04:07:42;;;;;;;7.95;3.83;;;;;;;25.20;57.21;100296.88;2103662;28;20040;-77
2022/08/06 04:09:06;;;;;;;4.93;3.10;;;;;;;25.29;56.97;100301.78;2097489;28;20036;-77
2022/08/06 04:10:31;;;;;;;7.90;3.53;;;;;;;25.39;56.94;100299.47;2098942;28;20130;-77
2022/08/06 04:11:55;;;;;;;8.35;3.05;;;;;;;25.47;56.93;100297.22;2106249;28;20040;-77
2022/08/06 04:13:19;;;;;;;5.20;2.88;;;;;;;25.61;56.83;100296.50;2096412;28;20075;-77
2022/08/06 04:14:41;;;;;;;6.60;3.03;;;;;;;25.74;56.50;100295.75;2103436;28;20048;-76
2022/08/06 04:16:04;;;;;;;8.20;3.10;;;;;;;25.90;56.64;100301.22;2098946;28;20060;-77
2022/08/06 04:17:28;;;;;;;6.53;3.00;;;;;;;26.04;56.33;100295.06;2097051;28;20044;-77
2022/08/06 04:18:55;;;;;;;4.13;2.78;;;;;;;26.16;56.31;100300.66;2104990;28;20074;-77
2022/08/06 04:20:21;;;;;;;8.15;3.50;;;;;;;26.28;56.00;100291.00;2103798;28;20043;-77
2022/08/06 04:21:44;;;;;;;7.22;2.95;;;;;;;26.38;55.60;100299.47;2101135;28;20044;-77
2022/08/06 04:23:05;;;;;;;6.10;2.70;;;;;;;26.50;55.55;100293.34;2101153;28;20182;-77
2022/08/06 04:24:28;;;;;;;4.55;2.65;;;;;;;26.63;55.26;100296.22;2102243;28;20039;-77
2022/08/06 04:25:52;;;;;;;5.05;3.20;;;;;;;26.78;54.67;100295.34;2102689;28;20105;-76
2022/08/06 04:27:16;;;;;;;6.10;2.78;;;;;;;26.89;54.27;100291.06;2094690;28;20040;-77
2022/08/06 04:28:42;;;;;;;6.47;2.88;;;;;;;27.01;54.01;100300.28;2094907;28;20052;-78
2022/08/06 04:30:07;;;;;;;4.97;2.80;;;;;;;27.15;54.15;100294.91;2097457;28;20625;-77
2022/08/06 04:31:32;;;;;;;5.57;3.72;;;;;;;27.28;53.95;100297.75;2102670;28;20101;-77
2022/08/06 04:32:53;;;;;;;5.45;2.70;;;;;;;27.43;53.34;100288.69;2101134;28;20089;-77
2022/08/06 04:34:19;;;;;;;;;;;;;;;27.53;53.19;100298.00;2105821;28;20060;-77
2022/08/06 04:35:44;;;;;;;15.20;3.53;;;;;;;27.71;52.93;100290.56;2095189;28;20501;-77
2022/08/06 04:37:06;;;;;;;9.05;2.80;;;;;;;27.85;52.17;100289.69;2103400;28;20062;-77
2022/08/06 04:38:29;;;;;;;3.50;2.25;;;;;;;27.94;51.60;100286.41;2105411;28;20129;-77
2022/08/06 04:39:50;;;;;;;5.78;2.60;;;;;;;28.01;51.13;100291.34;2105620;28;20098;-77
2022/08/06 04:41:14;;;;;;;4.28;2.38;;;;;;;28.11;50.81;100289.78;2102004;28;20036;-77
2022/08/06 04:42:35;;;;;;;6.85;2.58;;;;;;;28.23;50.60;100289.97;2100707;28;20059;-77
2022/08/06 04:43:58;;;;;;;9.45;2.40;;;;;;;28.36;50.59;100289.06;2094171;28;20052;-77
2022/08/06 04:45:21;;;;;;;6.50;2.80;;;;;;;28.51;50.49;100293.50;2100596;28;20047;-77
2022/08/06 04:46:48;;;;;;;3.58;1.90;;;;;;;28.67;50.11;100279.78;2105955;28;20123;-77
2022/08/06 04:48:11;;;;;;;2.90;2.10;;;;;;;28.88;49.65;100293.81;2094841;28;20404;-77
2022/08/06 04:49:34;;;;;;;5.55;2.97;;;;;;;29.04;49.46;100290.91;2100877;28;20032;-77
2022/08/06 04:50:58;;;;;;;25.50;3.40;;;;;;;29.19;49.06;100293.44;2094531;28;20074;-78
2022/08/06 04:52:24;;;;;;;8.98;2.80;;;;;;;29.35;48.84;100285.09;2109124;28;20077;-77
2022/08/06 04:53:45;;;;;;;7.53;2.97;;;;;;;29.48;48.09;100285.13;2109824;28;20175;-77
2022/08/06 04:55:09;;;;;;;6.60;2.38;;;;;;;29.64;47.53;100293.94;2105545;28;20056;-77
2022/08/06 04:56:31;;;;;;;4.88;2.40;;;;;;;29.77;47.12;100289.38;2102939;28;20042;-77
2022/08/06 04:57:53;;;;;;;5.63;2.60;;;;;;;29.95;46.78;100287.22;2102896;28;20047;-77
2022/08/06 04:59:16;;;;;;;3.83;2.22;;;;;;;30.18;46.21;100280.09;2105241;28;20079;-77
2022/08/06 05:00:38;;;;;;;5.00;2.13;;;;;;;30.39;45.73;100292.16;2110946;28;20046;-77
2022/08/06 05:02:00;;;;;;;5.43;2.78;;;;;;;30.58;44.91;100292.53;2111678;28;21810;-78
2022/08/06 05:03:23;;;;;;;4.05;2.22;;;;;;;30.78;44.21;100291.91;2112270;28;20080;-77
2022/08/06 05:04:46;;;;;;;5.00;2.17;;;;;;;30.99;43.80;100296.69;2104860;28;20498;-77
2022/08/06 05:06:18;;;;;;;7.32;2.58;;;;;;;31.15;43.25;100292.72;2094413;28;20068;-77
2022/08/06 05:07:41;;;;;;;4.82;2.20;;;;;;;31.36;42.64;100292.91;2101893;28;20501;-77
2022/08/06 05:09:07;;;;;;;4.05;2.30;;;;;;;31.49;42.15;100296.41;2094475;28;20097;-77
2022/08/06 05:10:36;;;;;;;6.38;2.25;;;;;;;31.61;41.77;100294.59;2098107;28;20537;-78
2022/08/06 05:12:04;;;;;;;4.50;2.47;;;;;;;31.82;41.36;100292.03;2105326;28;20166;-78
2022/08/06 05:13:33;;;;;;;6.78;2.28;;;;;;;32.01;40.70;100293.13;2104893;28;20090;-77
2022/08/06 05:15:00;;;;;;;5.55;2.28;;;;;;;32.15;40.72;100291.19;2096316;28;20053;-78
2022/08/06 05:16:22;;;;;;;4.28;2.22;;;;;;;32.33;40.56;100287.81;2103092;28;20052;-79
2022/08/06 05:17:49;;;;;;;4.22;2.10;;;;;;;32.55;40.01;100291.50;2101850;28;20044;-78
2022/08/06 05:19:17;;;;;;;5.25;2.20;;;;;;;32.80;39.33;100291.19;2103324;28;20047;-78
2022/08/06 05:20:42;;;;;;;4.60;1.95;;;;;;;32.96;39.03;100293.47;2103112;28;20087;-77
2022/08/06 05:22:08;;;;;;;6.15;2.38;;;;;;;33.07;38.85;100285.25;2100600;28;20073;-78
2022/08/06 05:23:36;;;;;;;6.32;2.45;;;;;;;33.28;38.24;100290.78;2091044;28;20644;-77
2022/08/06 05:25:00;;;;;;;6.38;2.55;;;;;;;33.39;37.79;100290.72;2098305;28;20495;-78
2022/08/06 05:26:23;;;;;;;4.72;2.05;;;;;;;33.48;37.57;100293.50;2101671;28;20082;-78
2022/08/06 05:27:45;;;;;;;3.47;2.10;;;;;;;33.64;37.24;100295.75;2102092;28;20683;-78
2022/08/06 05:29:08;;;;;;;5.25;2.10;;;;;;;33.67;36.85;100298.25;2109543;28;20051;-78
2022/08/06 05:30:30;;;;;;;2.78;1.88;;;;;;;33.77;36.63;100288.22;2104588;28;20096;-77
2022/08/06 05:31:58;;;;;;;;;;;;;;;33.84;36.75;100294.03;2103115;28;20064;-77
2022/08/06 05:33:26;;;;;;;5.88;3.00;;;;;;;34.07;36.48;100298.31;2110938;28;19920;-78
2022/08/06 05:34:48;;;;;;;4.50;1.98;;;;;;;34.17;36.21;100291.00;2104845;28;20131;-78
2022/08/06 05:36:13;;;;;;;5.00;2.08;;;;;;;34.31;35.89;100290.66;2100890;28;20097;-78
2022/08/06 05:37:35;;;;;;;4.53;2.15;;;;;;;34.46;35.38;100291.16;2104248;28;20048;-78
2022/08/06 05:38:58;;;;;;;3.33;2.10;;;;;;;34.48;35.16;100290.97;2103692;28;20052;-78
2022/08/06 05:40:19;;;;;;;3.80;2.22;;;;;;;34.46;35.08;100291.16;2101923;28;20131;-77
2022/08/06 05:41:42;;;;;;;4.97;2.33;;;;;;;34.62;34.71;100294.19;2099828;28;20069;-77
2022/08/06 05:43:05;;;;;;;4.68;2.15;;;;;;;34.75;34.95;100297.56;2100708;28;20040;-78
2022/08/06 05:44:27;;;;;;;3.40;2.00;;;;;;;34.96;34.61;100299.31;2102265;28;20369;-78
2022/08/06 05:45:53;;;;;;;3.88;2.35;;;;;;;34.97;34.17;100288.22;2101925;28;20127;-78
2022/08/06 05:47:24;;;;;;;4.63;2.28;;;;;;;34.91;34.31;100290.66;2103377;28;20056;-78
2022/08/06 05:48:50;;;;;;;4.28;2.58;;;;;;;34.96;34.27;100294.72;2109667;28;20136;-78
2022/08/06 05:50:19;;;;;;;3.75;2.28;;;;;;;35.04;34.22;100292.13;2094173;28;20040;-78
2022/08/06 05:51:47;;;;;;;5.88;2.22;;;;;;;35.10;33.67;100293.41;2099124;28;20159;-78
2022/08/06 05:53:14;;;;;;;5.20;2.30;;;;;;;35.14;33.57;100295.72;2101081;28;20051;-78
2022/08/06 05:54:40;;;;;;;7.97;2.22;;;;;;;35.18;33.67;100288.91;2109265;28;20130;-77
2022/08/06 05:56:07;;;;;;;4.75;2.28;;;;;;;35.37;33.35;100289.97;2099397;28;20047;-78
2022/08/06 05:57:37;;;;;;;5.22;2.63;;;;;;;35.51;33.45;100295.00;2092247;28;20432;-78
2022/08/06 05:59:05;;;;;;;3.65;2.00;;;;;;;35.63;33.09;100293.81;2108181;28;20523;-78
2022/08/06 06:00:31;;;;;;;5.80;2.50;;;;;;;35.82;33.16;100291.03;2104962;28;20043;-78
2022/08/06 06:01:56;;;;;;;4.93;2.05;;;;;;;36.02;33.03;100304.72;2102125;28;20040;-78
2022/08/06 06:03:19;;;;;;;4.65;2.42;;;;;;;36.12;32.87;100294.53;2093721;28;20062;-78
2022/08/06 06:04:42;;;;;;;5.10;2.42;;;;;;;36.08;32.84;100302.22;2105918;28;20052;-78
2022/08/06 06:06:05;;;;;;;3.92;1.92;;;;;;;36.09;32.63;100303.97;2096446;28;20043;-78
2022/08/06 06:07:28;;;;;;;4.90;2.13;;;;;;;36.18;32.61;100300.31;2104827;28;20142;-78
2022/08/06 06:08:52;;;;;;;4.55;1.85;;;;;;;36.26;32.49;100310.56;2099857;28;20130;-79
2022/08/06 06:10:16;;;;;;;3.95;2.28;;;;;;;36.29;32.18;100305.63;2100694;28;20055;-78
2022/08/06 06:11:39;;;;;;;3.67;1.88;;;;;;;36.20;32.50;100298.28;2115925;27;20043;-78
2022/08/06 06:13:03;;;;;;;4.97;2.53;;;;;;;36.18;32.51;100293.94;2096708;28;20115;-78
2022/08/06 06:14:36;;;;;;;6.07;2.20;;;;;;;36.13;32.35;100294.38;2102190;28;20036;-78
2022/08/06 06:16:10;;;;;;;6.32;2.30;;;;;;;36.12;32.41;100311.03;2103529;28;20048;-79
2022/08/06 06:17:53;;;;;;;6.22;2.33;;;;;;;36.12;32.54;100298.16;2092931;28;20064;-78
2022/08/06 06:19:21;;;;;;;3.08;2.00;;;;;;;36.17;32.42;100303.25;2110407;28;20092;-78
2022/08/06 06:20:53;;;;;;;3.65;2.10;;;;;;;36.05;32.61;100301.66;2101973;28;20067;-78
2022/08/06 06:22:20;;;;;;;4.57;2.00;;;;;;;36.03;32.76;100300.94;2102577;28;20792;-78
2022/08/06 06:23:49;;;;;;;3.08;2.10;;;;;;;35.95;32.60;100301.69;2098437;28;20043;-79
2022/08/06 06:25:19;;;;;;;7.32;1.80;;;;;;;35.78;33.01;100302.47;2111111;28;20418;-78
2022/08/06 06:26:49;;;;;;;3.38;1.95;;;;;;;35.74;32.85;100298.28;2099145;28;20047;-77
2022/08/06 06:28:23;;;;;;;3.80;2.08;;;;;;;35.57;33.34;100313.63;2109827;27;20058;-77
2022/08/06 06:29:55;;;;;;;4.85;2.03;;;;;;;35.49;33.59;100313.50;2101640;28;20051;-77
2022/08/06 06:31:29;;;;;;;4.18;2.15;;;;;;;35.53;33.66;100304.81;2109767;28;20051;-78
2022/08/06 06:32:59;;;;;;;3.65;2.50;;;;;;;35.58;33.39;100303.50;2102805;28;20143;-76
2022/08/06 06:34:27;;;;;;;4.50;2.20;;;;;;;35.55;33.55;100305.53;2110285;28;20051;-77
2022/08/06 06:35:56;;;;;;;3.40;1.92;;;;;;;35.68;33.36;100315.34;2103365;28;20127;-78